sensor_id;sensor_type;location;lat;lon;timestamp;temperature;humidity
14620;DHT22;32125;48.518;9.050;2022-08-19T00:03:05;21.00;99.90
14620;DHT22;32125;48.518;9.050;2022-08-19T00:05:32;21.00;99.90
14620;DHT22;32125;48.518;9.050;2022-08-19T00:08:00;21.00;99.90
14620;DHT22;32125;48.518;9.050;2022-08-19T00:12:55;20.90;99.90
14620;DHT22;32125;48.518;9.050;2022-08-19T00:15:21;20.90;99.90
14620;DHT22;32125;48.518;9.050;2022-08-19T00:20:17;20.90;99.90
14620;DHT22;32125;48.518;9.050;2022-08-19T00:22:45;20.90;99.90
14620;DHT22;32125;48.518;9.050;2022-08-19T00:27:37;20.80;99.90
14620;DHT22;32125;48.518;9.050;2022-08-19T00:30:06;20.80;99.90
14620;DHT22;32125;48.518;9.050;2022-08-19T00:34:59;20.80;99.90
14620;DHT22;32125;48.518;9.050;2022-08-19T00:39:52;20.80;99.90
14620;DHT22;32125;48.518;9.050;2022-08-19T00:42:22;20.70;99.90
14620;DHT22;32125;48.518;9.050;2022-08-19T00:44:48;20.70;99.90
14620;DHT22;32125;48.518;9.050;2022-08-19T00:47:14;20.60;99.90
14620;DHT22;32125;48.518;9.050;2022-08-19T00:49:52;20.60;99.90
14620;DHT22;32125;48.518;9.050;2022-08-19T00:52:28;20.60;99.90
14620;DHT22;32125;48.518;9.050;2022-08-19T00:59:56;20.60;99.90
14620;DHT22;32125;48.518;9.050;2022-08-19T01:02:26;20.60;99.90
14620;DHT22;32125;48.518;9.050;2022-08-19T01:04:52;20.60;99.90
14620;DHT22;32125;48.518;9.050;2022-08-19T01:07:18;20.50;99.90
14620;DHT22;32125;48.518;9.050;2022-08-19T01:14:39;20.50;99.90
14620;DHT22;32125;48.518;9.050;2022-08-19T01:17:12;20.40;99.90
14620;DHT22;32125;48.518;9.050;2022-08-19T01:19:40;20.40;99.90
14620;DHT22;32125;48.518;9.050;2022-08-19T01:27:04;20.30;99.90
14620;DHT22;32125;48.518;9.050;2022-08-19T01:29:30;20.30;99.90
14620;DHT22;32125;48.518;9.050;2022-08-19T01:31:56;20.30;99.90
14620;DHT22;32125;48.518;9.050;2022-08-19T01:36:49;20.20;99.90
14620;DHT22;32125;48.518;9.050;2022-08-19T01:39:20;20.20;99.90
14620;DHT22;32125;48.518;9.050;2022-08-19T01:41:48;20.20;99.90
14620;DHT22;32125;48.518;9.050;2022-08-19T01:44:16;20.20;99.90
14620;DHT22;32125;48.518;9.050;2022-08-19T01:46:42;20.20;99.90
14620;DHT22;32125;48.518;9.050;2022-08-19T01:49:13;20.20;99.90
14620;DHT22;32125;48.518;9.050;2022-08-19T01:54:05;20.10;99.90
14620;DHT22;32125;48.518;9.050;2022-08-19T01:59:02;20.10;99.90
14620;DHT22;32125;48.518;9.050;2022-08-19T02:06:23;20.00;99.90
14620;DHT22;32125;48.518;9.050;2022-08-19T02:11:26;20.00;99.90
14620;DHT22;32125;48.518;9.050;2022-08-19T02:13:54;19.90;99.90
14620;DHT22;32125;48.518;9.050;2022-08-19T02:16:20;20.00;99.90
14620;DHT22;32125;48.518;9.050;2022-08-19T02:18:50;19.90;99.90
14620;DHT22;32125;48.518;9.050;2022-08-19T02:21:18;19.90;99.90
14620;DHT22;32125;48.518;9.050;2022-08-19T02:28:36;19.90;99.90
14620;DHT22;32125;48.518;9.050;2022-08-19T02:31:02;19.90;99.90
14620;DHT22;32125;48.518;9.050;2022-08-19T02:43:19;19.80;99.90
14620;DHT22;32125;48.518;9.050;2022-08-19T02:45:48;19.80;99.90
14620;DHT22;32125;48.518;9.050;2022-08-19T02:50:48;19.70;99.90
14620;DHT22;32125;48.518;9.050;2022-08-19T02:53:18;19.70;99.90
14620;DHT22;32125;48.518;9.050;2022-08-19T02:55:46;19.60;99.90
14620;DHT22;32125;48.518;9.050;2022-08-19T02:58:15;19.70;99.90
14620;DHT22;32125;48.518;9.050;2022-08-19T03:00:46;19.70;99.90
14620;DHT22;32125;48.518;9.050;2022-08-19T03:05:39;19.70;99.90
14620;DHT22;32125;48.518;9.050;2022-08-19T03:08:05;19.70;99.90
14620;DHT22;32125;48.518;9.050;2022-08-19T03:10:46;19.70;99.90
14620;DHT22;32125;48.518;9.050;2022-08-19T03:13:15;19.70;99.90
14620;DHT22;32125;48.518;9.050;2022-08-19T03:15:46;19.60;99.90
14620;DHT22;32125;48.518;9.050;2022-08-19T03:20:45;19.60;99.90
14620;DHT22;32125;48.518;9.050;2022-08-19T03:23:14;19.60;99.90
14620;DHT22;32125;48.518;9.050;2022-08-19T03:25:42;19.60;99.90
14620;DHT22;32125;48.518;9.050;2022-08-19T03:28:12;19.60;99.90
14620;DHT22;32125;48.518;9.050;2022-08-19T03:30:39;19.60;99.90
14620;DHT22;32125;48.518;9.050;2022-08-19T03:33:08;19.60;99.90
14620;DHT22;32125;48.518;9.050;2022-08-19T03:35:37;19.60;99.90
14620;DHT22;32125;48.518;9.050;2022-08-19T03:38:06;19.50;99.90
14620;DHT22;32125;48.518;9.050;2022-08-19T03:40:35;19.50;99.90
14620;DHT22;32125;48.518;9.050;2022-08-19T03:47:55;19.50;99.90
14620;DHT22;32125;48.518;9.050;2022-08-19T03:50:21;19.50;99.90
14620;DHT22;32125;48.518;9.050;2022-08-19T03:52:52;19.50;99.90
14620;DHT22;32125;48.518;9.050;2022-08-19T03:55:19;19.50;99.90
14620;DHT22;32125;48.518;9.050;2022-08-19T04:00:13;19.50;99.90
14620;DHT22;32125;48.518;9.050;2022-08-19T04:02:40;19.50;99.90
14620;DHT22;32125;48.518;9.050;2022-08-19T04:05:06;19.50;99.90
14620;DHT22;32125;48.518;9.050;2022-08-19T04:07:33;19.50;99.90
14620;DHT22;32125;48.518;9.050;2022-08-19T04:12:25;19.50;99.90
14620;DHT22;32125;48.518;9.050;2022-08-19T04:14:51;19.40;99.90
14620;DHT22;32125;48.518;9.050;2022-08-19T04:17:17;19.40;99.90
14620;DHT22;32125;48.518;9.050;2022-08-19T04:19:45;19.40;99.90
14620;DHT22;32125;48.518;9.050;2022-08-19T04:22:10;19.40;99.90
14620;DHT22;32125;48.518;9.050;2022-08-19T04:24:37;19.40;99.90
14620;DHT22;32125;48.518;9.050;2022-08-19T04:27:03;19.40;99.90
14620;DHT22;32125;48.518;9.050;2022-08-19T04:31:57;19.40;99.90
14620;DHT22;32125;48.518;9.050;2022-08-19T04:34:26;19.40;99.90
14620;DHT22;32125;48.518;9.050;2022-08-19T04:36:57;19.40;99.90
14620;DHT22;32125;48.518;9.050;2022-08-19T04:39:29;19.40;99.90
14620;DHT22;32125;48.518;9.050;2022-08-19T04:42:17;19.40;99.90
14620;DHT22;32125;48.518;9.050;2022-08-19T04:45:01;19.30;99.90
14620;DHT22;32125;48.518;9.050;2022-08-19T04:47:28;19.30;99.90
14620;DHT22;32125;48.518;9.050;2022-08-19T04:52:21;19.30;99.90
14620;DHT22;32125;48.518;9.050;2022-08-19T05:02:09;19.40;99.90
14620;DHT22;32125;48.518;9.050;2022-08-19T05:04:34;19.40;99.90
14620;DHT22;32125;48.518;9.050;2022-08-19T05:07:03;19.40;99.90
14620;DHT22;32125;48.518;9.050;2022-08-19T05:09:31;19.30;99.90
14620;DHT22;32125;48.518;9.050;2022-08-19T05:11:57;19.30;99.90
14620;DHT22;32125;48.518;9.050;2022-08-19T05:14:25;19.30;99.90
14620;DHT22;32125;48.518;9.050;2022-08-19T05:16:50;19.30;99.90
14620;DHT22;32125;48.518;9.050;2022-08-19T05:19:16;19.30;99.90
14620;DHT22;32125;48.518;9.050;2022-08-19T05:22:03;19.30;99.90
14620;DHT22;32125;48.518;9.050;2022-08-19T05:39:36;19.40;99.90
14620;DHT22;32125;48.518;9.050;2022-08-19T05:42:07;19.40;99.90
14620;DHT22;32125;48.518;9.050;2022-08-19T05:44:37;19.40;99.90
14620;DHT22;32125;48.518;9.050;2022-08-19T05:47:06;19.50;99.90
14620;DHT22;32125;48.518;9.050;2022-08-19T05:49:32;19.50;99.90
14620;DHT22;32125;48.518;9.050;2022-08-19T05:59:28;19.50;99.90
14620;DHT22;32125;48.518;9.050;2022-08-19T06:01:55;19.50;99.90
14620;DHT22;32125;48.518;9.050;2022-08-19T06:04:25;19.50;99.90
14620;DHT22;32125;48.518;9.050;2022-08-19T06:09:20;19.60;99.90
14620;DHT22;32125;48.518;9.050;2022-08-19T06:11:48;19.60;99.90
14620;DHT22;32125;48.518;9.050;2022-08-19T06:14:17;19.60;99.90
14620;DHT22;32125;48.518;9.050;2022-08-19T06:16:44;19.50;99.90
14620;DHT22;32125;48.518;9.050;2022-08-19T06:21:42;19.60;99.90
14620;DHT22;32125;48.518;9.050;2022-08-19T06:24:13;19.70;99.90
14620;DHT22;32125;48.518;9.050;2022-08-19T06:29:11;19.70;99.90
14620;DHT22;32125;48.518;9.050;2022-08-19T06:31:44;19.70;99.90
14620;DHT22;32125;48.518;9.050;2022-08-19T06:34:15;19.70;99.90
14620;DHT22;32125;48.518;9.050;2022-08-19T06:36:44;19.80;99.90
14620;DHT22;32125;48.518;9.050;2022-08-19T06:39:13;19.80;99.90
14620;DHT22;32125;48.518;9.050;2022-08-19T06:41:42;19.80;99.90
14620;DHT22;32125;48.518;9.050;2022-08-19T06:46:36;19.80;99.90
14620;DHT22;32125;48.518;9.050;2022-08-19T06:53:59;19.90;99.90
14620;DHT22;32125;48.518;9.050;2022-08-19T06:56:28;20.00;99.90
14620;DHT22;32125;48.518;9.050;2022-08-19T06:59:03;20.00;99.90
14620;DHT22;32125;48.518;9.050;2022-08-19T07:03:55;20.00;99.90
14620;DHT22;32125;48.518;9.050;2022-08-19T07:08:49;20.10;99.90
14620;DHT22;32125;48.518;9.050;2022-08-19T07:11:17;20.10;99.90
14620;DHT22;32125;48.518;9.050;2022-08-19T07:13:46;20.10;99.90
14620;DHT22;32125;48.518;9.050;2022-08-19T07:16:16;20.20;99.90
14620;DHT22;32125;48.518;9.050;2022-08-19T07:18:48;20.20;99.90
14620;DHT22;32125;48.518;9.050;2022-08-19T07:23:43;20.30;99.90
14620;DHT22;32125;48.518;9.050;2022-08-19T07:28:36;20.30;99.90
14620;DHT22;32125;48.518;9.050;2022-08-19T07:31:09;20.40;99.90
14620;DHT22;32125;48.518;9.050;2022-08-19T07:33:35;20.40;99.90
14620;DHT22;32125;48.518;9.050;2022-08-19T07:36:06;20.50;99.90
14620;DHT22;32125;48.518;9.050;2022-08-19T07:41:00;20.40;99.90
14620;DHT22;32125;48.518;9.050;2022-08-19T07:48:25;20.50;99.90
14620;DHT22;32125;48.518;9.050;2022-08-19T08:05:35;20.40;99.90
14620;DHT22;32125;48.518;9.050;2022-08-19T08:08:22;20.40;99.90
14620;DHT22;32125;48.518;9.050;2022-08-19T08:13:34;20.30;99.90
14620;DHT22;32125;48.518;9.050;2022-08-19T08:20:52;20.50;99.90
14620;DHT22;32125;48.518;9.050;2022-08-19T08:25:52;20.50;99.90
14620;DHT22;32125;48.518;9.050;2022-08-19T08:28:23;20.40;99.90
14620;DHT22;32125;48.518;9.050;2022-08-19T08:30:49;20.50;99.90
14620;DHT22;32125;48.518;9.050;2022-08-19T08:33:20;20.50;99.90
14620;DHT22;32125;48.518;9.050;2022-08-19T08:38:13;20.50;99.90
14620;DHT22;32125;48.518;9.050;2022-08-19T08:40:49;20.50;99.90
14620;DHT22;32125;48.518;9.050;2022-08-19T08:43:56;20.60;99.90
14620;DHT22;32125;48.518;9.050;2022-08-19T08:46:30;20.60;99.90
14620;DHT22;32125;48.518;9.050;2022-08-19T08:52:11;20.40;99.90
14620;DHT22;32125;48.518;9.050;2022-08-19T08:57:25;20.50;99.90
14620;DHT22;32125;48.518;9.050;2022-08-19T08:59:53;20.50;99.90
14620;DHT22;32125;48.518;9.050;2022-08-19T09:02:24;20.50;99.90
14620;DHT22;32125;48.518;9.050;2022-08-19T09:07:57;20.50;99.90
14620;DHT22;32125;48.518;9.050;2022-08-19T09:10:37;20.50;99.90
14620;DHT22;32125;48.518;9.050;2022-08-19T09:13:21;20.50;99.90
14620;DHT22;32125;48.518;9.050;2022-08-19T09:16:03;20.50;99.90
14620;DHT22;32125;48.518;9.050;2022-08-19T09:18:41;20.50;99.90
14620;DHT22;32125;48.518;9.050;2022-08-19T09:21:10;20.50;99.90
14620;DHT22;32125;48.518;9.050;2022-08-19T09:23:36;20.50;99.90
14620;DHT22;32125;48.518;9.050;2022-08-19T09:28:39;20.50;99.90
14620;DHT22;32125;48.518;9.050;2022-08-19T09:31:10;20.50;99.90
14620;DHT22;32125;48.518;9.050;2022-08-19T09:33:37;20.60;99.90
14620;DHT22;32125;48.518;9.050;2022-08-19T09:36:05;20.60;99.90
14620;DHT22;32125;48.518;9.050;2022-08-19T09:41:03;20.50;99.90
14620;DHT22;32125;48.518;9.050;2022-08-19T09:48:22;20.50;99.90
14620;DHT22;32125;48.518;9.050;2022-08-19T09:50:52;20.50;99.90
14620;DHT22;32125;48.518;9.050;2022-08-19T09:55:44;20.50;99.90
14620;DHT22;32125;48.518;9.050;2022-08-19T09:58:10;20.60;99.90
14620;DHT22;32125;48.518;9.050;2022-08-19T10:00:40;20.60;99.90
14620;DHT22;32125;48.518;9.050;2022-08-19T10:03:05;20.60;99.90
14620;DHT22;32125;48.518;9.050;2022-08-19T10:05:31;20.60;99.90
14620;DHT22;32125;48.518;9.050;2022-08-19T10:15:39;20.60;99.90
14620;DHT22;32125;48.518;9.050;2022-08-19T10:18:06;20.50;99.90
14620;DHT22;32125;48.518;9.050;2022-08-19T10:20:32;20.50;99.90
14620;DHT22;32125;48.518;9.050;2022-08-19T10:23:03;20.50;99.90
14620;DHT22;32125;48.518;9.050;2022-08-19T10:25:29;20.50;99.90
14620;DHT22;32125;48.518;9.050;2022-08-19T10:35:13;20.60;99.90
14620;DHT22;32125;48.518;9.050;2022-08-19T10:37:40;20.60;99.90
14620;DHT22;32125;48.518;9.050;2022-08-19T10:40:07;20.60;99.90
14620;DHT22;32125;48.518;9.050;2022-08-19T10:42:34;20.60;99.90
14620;DHT22;32125;48.518;9.050;2022-08-19T10:45:05;20.60;99.90
14620;DHT22;32125;48.518;9.050;2022-08-19T10:47:32;20.50;99.90
14620;DHT22;32125;48.518;9.050;2022-08-19T10:50:00;20.60;99.90
14620;DHT22;32125;48.518;9.050;2022-08-19T10:55:12;20.50;99.90
14620;DHT22;32125;48.518;9.050;2022-08-19T11:00:26;20.50;99.90
14620;DHT22;32125;48.518;9.050;2022-08-19T11:02:54;20.50;99.90
14620;DHT22;32125;48.518;9.050;2022-08-19T11:07:49;20.40;99.90
14620;DHT22;32125;48.518;9.050;2022-08-19T11:10:16;20.50;99.90
14620;DHT22;32125;48.518;9.050;2022-08-19T11:12:47;20.50;99.90
14620;DHT22;32125;48.518;9.050;2022-08-19T11:15:13;20.50;99.90
14620;DHT22;32125;48.518;9.050;2022-08-19T11:17:44;20.50;99.90
14620;DHT22;32125;48.518;9.050;2022-08-19T11:20:14;20.60;99.90
14620;DHT22;32125;48.518;9.050;2022-08-19T11:22:43;20.60;99.90
14620;DHT22;32125;48.518;9.050;2022-08-19T11:25:10;20.60;99.90
14620;DHT22;32125;48.518;9.050;2022-08-19T11:30:14;20.50;99.90
14620;DHT22;32125;48.518;9.050;2022-08-19T11:32:43;20.50;99.90
14620;DHT22;32125;48.518;9.050;2022-08-19T11:35:13;20.50;99.90
14620;DHT22;32125;48.518;9.050;2022-08-19T11:40:10;20.50;99.90
14620;DHT22;32125;48.518;9.050;2022-08-19T11:47:53;20.50;99.90
14620;DHT22;32125;48.518;9.050;2022-08-19T11:50:19;20.40;99.90
14620;DHT22;32125;48.518;9.050;2022-08-19T11:52:46;20.50;99.90
14620;DHT22;32125;48.518;9.050;2022-08-19T11:55:13;20.60;99.90
14620;DHT22;32125;48.518;9.050;2022-08-19T11:57:39;20.50;99.90
14620;DHT22;32125;48.518;9.050;2022-08-19T12:00:06;20.50;99.90
14620;DHT22;32125;48.518;9.050;2022-08-19T12:02:33;20.50;99.90
14620;DHT22;32125;48.518;9.050;2022-08-19T12:07:28;20.60;99.90
14620;DHT22;32125;48.518;9.050;2022-08-19T12:09:56;20.70;99.90
14620;DHT22;32125;48.518;9.050;2022-08-19T12:12:22;20.60;99.90
14620;DHT22;32125;48.518;9.050;2022-08-19T12:14:49;20.60;99.90
14620;DHT22;32125;48.518;9.050;2022-08-19T12:17:27;20.60;99.90
14620;DHT22;32125;48.518;9.050;2022-08-19T12:19:54;20.60;99.90
14620;DHT22;32125;48.518;9.050;2022-08-19T12:22:19;20.60;99.90
14620;DHT22;32125;48.518;9.050;2022-08-19T12:24:47;20.50;99.90
14620;DHT22;32125;48.518;9.050;2022-08-19T12:27:15;20.50;99.90
14620;DHT22;32125;48.518;9.050;2022-08-19T12:29:41;20.50;99.90
14620;DHT22;32125;48.518;9.050;2022-08-19T12:32:07;20.40;99.90
14620;DHT22;32125;48.518;9.050;2022-08-19T12:34:35;20.50;99.90
14620;DHT22;32125;48.518;9.050;2022-08-19T12:37:05;20.50;99.90
14620;DHT22;32125;48.518;9.050;2022-08-19T12:39:35;20.50;99.90
14620;DHT22;32125;48.518;9.050;2022-08-19T12:42:04;20.40;99.90
14620;DHT22;32125;48.518;9.050;2022-08-19T12:44:30;20.40;99.90
14620;DHT22;32125;48.518;9.050;2022-08-19T12:46:57;20.40;99.90
14620;DHT22;32125;48.518;9.050;2022-08-19T12:49:23;20.40;99.90
14620;DHT22;32125;48.518;9.050;2022-08-19T12:51:50;20.40;99.90
14620;DHT22;32125;48.518;9.050;2022-08-19T12:54:15;20.40;99.90
14620;DHT22;32125;48.518;9.050;2022-08-19T12:56:41;20.40;99.90
14620;DHT22;32125;48.518;9.050;2022-08-19T13:01:38;20.50;99.90
14620;DHT22;32125;48.518;9.050;2022-08-19T13:04:06;20.50;99.90
14620;DHT22;32125;48.518;9.050;2022-08-19T13:06:31;20.50;99.90
14620;DHT22;32125;48.518;9.050;2022-08-19T13:08:57;20.50;99.90
14620;DHT22;32125;48.518;9.050;2022-08-19T13:11:23;20.50;99.90
14620;DHT22;32125;48.518;9.050;2022-08-19T13:13:51;20.60;99.90
14620;DHT22;32125;48.518;9.050;2022-08-19T13:16:18;20.60;99.90
14620;DHT22;32125;48.518;9.050;2022-08-19T13:18:46;20.50;99.90
14620;DHT22;32125;48.518;9.050;2022-08-19T13:21:18;20.50;99.90
14620;DHT22;32125;48.518;9.050;2022-08-19T13:23:48;20.50;99.90
14620;DHT22;32125;48.518;9.050;2022-08-19T13:26:15;20.50;99.90
14620;DHT22;32125;48.518;9.050;2022-08-19T13:28:44;20.50;99.90
14620;DHT22;32125;48.518;9.050;2022-08-19T13:31:30;20.40;99.90
14620;DHT22;32125;48.518;9.050;2022-08-19T13:36:41;20.40;99.90
14620;DHT22;32125;48.518;9.050;2022-08-19T13:39:08;20.40;99.90
14620;DHT22;32125;48.518;9.050;2022-08-19T13:41:37;20.30;99.90
14620;DHT22;32125;48.518;9.050;2022-08-19T13:44:05;20.30;99.90
14620;DHT22;32125;48.518;9.050;2022-08-19T13:46:34;20.30;99.90
14620;DHT22;32125;48.518;9.050;2022-08-19T13:48:59;20.30;99.90
14620;DHT22;32125;48.518;9.050;2022-08-19T13:51:27;20.30;99.90
14620;DHT22;32125;48.518;9.050;2022-08-19T13:58:52;20.30;99.90
14620;DHT22;32125;48.518;9.050;2022-08-19T14:01:21;20.30;99.90
14620;DHT22;32125;48.518;9.050;2022-08-19T14:03:47;20.30;99.90
14620;DHT22;32125;48.518;9.050;2022-08-19T14:06:13;20.30;99.90
14620;DHT22;32125;48.518;9.050;2022-08-19T14:11:09;20.40;99.90
14620;DHT22;32125;48.518;9.050;2022-08-19T14:13:35;20.40;99.90
14620;DHT22;32125;48.518;9.050;2022-08-19T14:16:01;20.50;99.90
14620;DHT22;32125;48.518;9.050;2022-08-19T14:18:29;20.50;99.90
14620;DHT22;32125;48.518;9.050;2022-08-19T14:23:22;20.60;99.90
14620;DHT22;32125;48.518;9.050;2022-08-19T14:25:47;20.60;99.90
14620;DHT22;32125;48.518;9.050;2022-08-19T14:28:13;20.60;99.90
14620;DHT22;32125;48.518;9.050;2022-08-19T14:30:38;20.70;99.90
14620;DHT22;32125;48.518;9.050;2022-08-19T14:35:36;20.70;99.90
14620;DHT22;32125;48.518;9.050;2022-08-19T14:38:05;20.70;99.90
14620;DHT22;32125;48.518;9.050;2022-08-19T14:40:32;20.80;99.90
14620;DHT22;32125;48.518;9.050;2022-08-19T14:43:00;20.80;99.90
14620;DHT22;32125;48.518;9.050;2022-08-19T14:45:32;20.80;99.90
14620;DHT22;32125;48.518;9.050;2022-08-19T14:47:58;20.80;99.90
14620;DHT22;32125;48.518;9.050;2022-08-19T14:50:25;20.80;99.90
14620;DHT22;32125;48.518;9.050;2022-08-19T14:52:58;20.80;99.90
14620;DHT22;32125;48.518;9.050;2022-08-19T14:55:24;20.90;99.90
14620;DHT22;32125;48.518;9.050;2022-08-19T15:00:18;20.90;99.90
14620;DHT22;32125;48.518;9.050;2022-08-19T15:02:46;20.90;99.90
14620;DHT22;32125;48.518;9.050;2022-08-19T15:05:12;20.80;99.90
14620;DHT22;32125;48.518;9.050;2022-08-19T15:10:06;20.90;99.90
14620;DHT22;32125;48.518;9.050;2022-08-19T15:12:34;20.90;99.90
14620;DHT22;32125;48.518;9.050;2022-08-19T15:15:00;20.90;99.90
14620;DHT22;32125;48.518;9.050;2022-08-19T15:17:31;20.90;99.90
14620;DHT22;32125;48.518;9.050;2022-08-19T15:19:56;20.90;99.90
14620;DHT22;32125;48.518;9.050;2022-08-19T15:29:40;20.90;99.90
14620;DHT22;32125;48.518;9.050;2022-08-19T15:32:07;20.90;99.90
14620;DHT22;32125;48.518;9.050;2022-08-19T15:37:00;20.90;99.90
14620;DHT22;32125;48.518;9.050;2022-08-19T15:39:26;21.00;99.90
14620;DHT22;32125;48.518;9.050;2022-08-19T15:41:51;21.00;99.90
14620;DHT22;32125;48.518;9.050;2022-08-19T15:44:19;20.90;99.90
14620;DHT22;32125;48.518;9.050;2022-08-19T15:46:48;20.90;99.90
14620;DHT22;32125;48.518;9.050;2022-08-19T15:49:19;20.90;99.90
14620;DHT22;32125;48.518;9.050;2022-08-19T15:51:47;21.00;99.90
14620;DHT22;32125;48.518;9.050;2022-08-19T15:54:16;20.90;99.90
14620;DHT22;32125;48.518;9.050;2022-08-19T15:56:42;20.90;99.90
14620;DHT22;32125;48.518;9.050;2022-08-19T15:59:32;20.80;99.90
14620;DHT22;32125;48.518;9.050;2022-08-19T16:05:07;20.90;99.90
14620;DHT22;32125;48.518;9.050;2022-08-19T16:07:52;20.90;99.90
14620;DHT22;32125;48.518;9.050;2022-08-19T16:12:46;21.00;99.90
14620;DHT22;32125;48.518;9.050;2022-08-19T16:15:12;21.00;99.90
14620;DHT22;32125;48.518;9.050;2022-08-19T16:17:42;21.10;99.90
14620;DHT22;32125;48.518;9.050;2022-08-19T16:22:38;21.20;99.90
14620;DHT22;32125;48.518;9.050;2022-08-19T16:25:06;21.20;99.90
14620;DHT22;32125;48.518;9.050;2022-08-19T16:27:35;21.20;99.90
14620;DHT22;32125;48.518;9.050;2022-08-19T16:32:31;21.30;99.90
14620;DHT22;32125;48.518;9.050;2022-08-19T16:34:59;21.40;99.90
14620;DHT22;32125;48.518;9.050;2022-08-19T16:42:24;21.40;99.90
14620;DHT22;32125;48.518;9.050;2022-08-19T16:44:50;21.50;99.90
14620;DHT22;32125;48.518;9.050;2022-08-19T16:47:18;21.50;99.90
14620;DHT22;32125;48.518;9.050;2022-08-19T16:49:44;21.60;99.90
14620;DHT22;32125;48.518;9.050;2022-08-19T16:52:09;21.60;99.90
14620;DHT22;32125;48.518;9.050;2022-08-19T16:54:38;21.60;99.90
14620;DHT22;32125;48.518;9.050;2022-08-19T16:57:04;21.60;99.90
14620;DHT22;32125;48.518;9.050;2022-08-19T16:59:33;21.50;99.90
14620;DHT22;32125;48.518;9.050;2022-08-19T17:02:00;21.50;99.90
14620;DHT22;32125;48.518;9.050;2022-08-19T17:04:27;21.50;99.90
14620;DHT22;32125;48.518;9.050;2022-08-19T17:06:55;21.50;99.90
14620;DHT22;32125;48.518;9.050;2022-08-19T17:09:20;21.40;99.90
14620;DHT22;32125;48.518;9.050;2022-08-19T17:11:46;21.40;99.90
14620;DHT22;32125;48.518;9.050;2022-08-19T17:16:42;21.30;99.90
14620;DHT22;32125;48.518;9.050;2022-08-19T17:19:08;21.30;99.90
14620;DHT22;32125;48.518;9.050;2022-08-19T17:21:35;21.20;99.90
14620;DHT22;32125;48.518;9.050;2022-08-19T17:24:04;21.20;99.90
14620;DHT22;32125;48.518;9.050;2022-08-19T17:26:30;21.20;99.90
14620;DHT22;32125;48.518;9.050;2022-08-19T17:28:57;21.40;99.90
14620;DHT22;32125;48.518;9.050;2022-08-19T17:31:25;21.60;99.90
14620;DHT22;32125;48.518;9.050;2022-08-19T17:41:24;21.40;99.90
14620;DHT22;32125;48.518;9.050;2022-08-19T17:43:53;21.30;99.90
14620;DHT22;32125;48.518;9.050;2022-08-19T17:48:49;21.20;99.90
14620;DHT22;32125;48.518;9.050;2022-08-19T17:54:05;21.10;99.90
14620;DHT22;32125;48.518;9.050;2022-08-19T17:56:35;21.20;99.90
14620;DHT22;32125;48.518;9.050;2022-08-19T17:59:03;21.20;99.90
14620;DHT22;32125;48.518;9.050;2022-08-19T18:01:31;21.20;99.90
14620;DHT22;32125;48.518;9.050;2022-08-19T18:03:57;21.10;99.90
14620;DHT22;32125;48.518;9.050;2022-08-19T18:11:15;21.10;99.90
14620;DHT22;32125;48.518;9.050;2022-08-19T18:13:41;21.00;99.90
14620;DHT22;32125;48.518;9.050;2022-08-19T18:18:40;21.10;99.90
14620;DHT22;32125;48.518;9.050;2022-08-19T18:21:07;21.00;99.90
14620;DHT22;32125;48.518;9.050;2022-08-19T18:23:35;21.00;99.90
14620;DHT22;32125;48.518;9.050;2022-08-19T18:28:31;21.00;99.90
14620;DHT22;32125;48.518;9.050;2022-08-19T18:30:56;20.90;99.90
14620;DHT22;32125;48.518;9.050;2022-08-19T18:33:22;20.90;99.90
14620;DHT22;32125;48.518;9.050;2022-08-19T18:49:27;21.10;99.90
14620;DHT22;32125;48.518;9.050;2022-08-19T18:54:23;21.10;99.90
14620;DHT22;32125;48.518;9.050;2022-08-19T18:56:52;21.10;99.90
14620;DHT22;32125;48.518;9.050;2022-08-19T18:59:23;21.10;99.90
14620;DHT22;32125;48.518;9.050;2022-08-19T19:01:50;21.10;99.90
14620;DHT22;32125;48.518;9.050;2022-08-19T19:09:18;21.10;99.90
14620;DHT22;32125;48.518;9.050;2022-08-19T19:11:51;21.00;99.90
14620;DHT22;32125;48.518;9.050;2022-08-19T19:14:26;21.00;99.90
14620;DHT22;32125;48.518;9.050;2022-08-19T19:16:56;21.00;99.90
14620;DHT22;32125;48.518;9.050;2022-08-19T19:19:23;21.00;99.90
14620;DHT22;32125;48.518;9.050;2022-08-19T19:21:49;21.00;99.90
14620;DHT22;32125;48.518;9.050;2022-08-19T19:24:21;20.90;99.90
14620;DHT22;32125;48.518;9.050;2022-08-19T19:26:49;20.90;99.90
14620;DHT22;32125;48.518;9.050;2022-08-19T19:29:17;20.80;99.90
14620;DHT22;32125;48.518;9.050;2022-08-19T19:31:43;20.90;99.90
14620;DHT22;32125;48.518;9.050;2022-08-19T19:34:10;20.80;99.90
14620;DHT22;32125;48.518;9.050;2022-08-19T19:36:37;20.80;99.90
14620;DHT22;32125;48.518;9.050;2022-08-19T19:39:03;20.70;99.90
14620;DHT22;32125;48.518;9.050;2022-08-19T19:41:29;20.70;99.90
14620;DHT22;32125;48.518;9.050;2022-08-19T19:43:58;20.70;99.90
14620;DHT22;32125;48.518;9.050;2022-08-19T19:51:29;20.70;99.90
14620;DHT22;32125;48.518;9.050;2022-08-19T19:56:22;20.60;99.90
14620;DHT22;32125;48.518;9.050;2022-08-19T19:58:50;20.60;99.90
14620;DHT22;32125;48.518;9.050;2022-08-19T20:01:20;20.50;99.90
14620;DHT22;32125;48.518;9.050;2022-08-19T20:06:16;20.50;99.90
14620;DHT22;32125;48.518;9.050;2022-08-19T20:08:43;20.50;99.90
14620;DHT22;32125;48.518;9.050;2022-08-19T20:11:33;20.50;99.90
14620;DHT22;32125;48.518;9.050;2022-08-19T20:14:14;20.40;99.90
14620;DHT22;32125;48.518;9.050;2022-08-19T20:16:41;20.40;99.90
14620;DHT22;32125;48.518;9.050;2022-08-19T20:19:09;20.40;99.90
14620;DHT22;32125;48.518;9.050;2022-08-19T20:21:38;20.40;99.90
14620;DHT22;32125;48.518;9.050;2022-08-19T20:24:18;20.40;99.90
14620;DHT22;32125;48.518;9.050;2022-08-19T20:26:45;20.40;99.90
14620;DHT22;32125;48.518;9.050;2022-08-19T20:31:38;20.30;99.90
14620;DHT22;32125;48.518;9.050;2022-08-19T20:34:08;20.30;99.90
14620;DHT22;32125;48.518;9.050;2022-08-19T20:36:34;20.30;99.90
14620;DHT22;32125;48.518;9.050;2022-08-19T20:41:27;20.20;99.90
14620;DHT22;32125;48.518;9.050;2022-08-19T20:43:55;20.20;99.90
14620;DHT22;32125;48.518;9.050;2022-08-19T20:46:20;20.20;99.90
14620;DHT22;32125;48.518;9.050;2022-08-19T20:48:48;20.20;99.90
14620;DHT22;32125;48.518;9.050;2022-08-19T20:51:14;20.20;99.90
14620;DHT22;32125;48.518;9.050;2022-08-19T20:56:09;20.20;99.90
14620;DHT22;32125;48.518;9.050;2022-08-19T20:58:35;20.20;99.90
14620;DHT22;32125;48.518;9.050;2022-08-19T21:01:05;20.20;99.90
14620;DHT22;32125;48.518;9.050;2022-08-19T21:03:37;20.20;99.90
14620;DHT22;32125;48.518;9.050;2022-08-19T21:06:10;20.20;99.90
14620;DHT22;32125;48.518;9.050;2022-08-19T21:08:36;20.20;99.90
14620;DHT22;32125;48.518;9.050;2022-08-19T21:11:02;20.20;99.90
14620;DHT22;32125;48.518;9.050;2022-08-19T21:13:30;20.10;99.90
14620;DHT22;32125;48.518;9.050;2022-08-19T21:15:56;20.10;99.90